sensor_id;sensor_type;location;lat;lon;timestamp;P1;durP1;ratioP1;P2;durP2;ratioP2
8480;SDS011;4277;51.354;6.740;2023-02-28T00:00:00;11.27;;;5.87;;
8480;SDS011;4277;51.354;6.740;2023-02-28T00:02:33;8.77;;;6.40;;
8480;SDS011;4277;51.354;6.740;2023-02-28T00:04:59;7.77;;;5.80;;
8480;SDS011;4277;51.354;6.740;2023-02-28T00:07:26;8.07;;;6.43;;
8480;SDS011;4277;51.354;6.740;2023-02-28T00:09:53;7.20;;;5.60;;
8480;SDS011;4277;51.354;6.740;2023-02-28T00:12:19;8.27;;;6.00;;
8480;SDS011;4277;51.354;6.740;2023-02-28T00:14:45;9.40;;;6.10;;
8480;SDS011;4277;51.354;6.740;2023-02-28T00:17:11;9.93;;;6.17;;
8480;SDS011;4277;51.354;6.740;2023-02-28T00:19:37;6.90;;;5.70;;
8480;SDS011;4277;51.354;6.740;2023-02-28T00:22:02;8.97;;;5.77;;
8480;SDS011;4277;51.354;6.740;2023-02-28T00:24:28;7.93;;;5.73;;
8480;SDS011;4277;51.354;6.740;2023-02-28T00:26:54;7.17;;;5.23;;
8480;SDS011;4277;51.354;6.740;2023-02-28T00:29:20;8.23;;;6.10;;
8480;SDS011;4277;51.354;6.740;2023-02-28T00:31:46;7.00;;;5.80;;
8480;SDS011;4277;51.354;6.740;2023-02-28T00:34:12;7.23;;;5.60;;
8480;SDS011;4277;51.354;6.740;2023-02-28T00:36:38;8.00;;;6.20;;
8480;SDS011;4277;51.354;6.740;2023-02-28T00:39:05;8.87;;;6.17;;
8480;SDS011;4277;51.354;6.740;2023-02-28T00:41:31;8.70;;;6.80;;
8480;SDS011;4277;51.354;6.740;2023-02-28T00:43:57;8.13;;;5.97;;
8480;SDS011;4277;51.354;6.740;2023-02-28T00:46:23;8.77;;;5.80;;
8480;SDS011;4277;51.354;6.740;2023-02-28T00:48:49;8.57;;;5.87;;
8480;SDS011;4277;51.354;6.740;2023-02-28T00:51:15;9.53;;;6.33;;
8480;SDS011;4277;51.354;6.740;2023-02-28T00:53:41;9.47;;;5.70;;
8480;SDS011;4277;51.354;6.740;2023-02-28T00:56:07;7.23;;;6.00;;
8480;SDS011;4277;51.354;6.740;2023-02-28T00:58:33;9.00;;;5.93;;
8480;SDS011;4277;51.354;6.740;2023-02-28T01:00:59;9.27;;;5.83;;
8480;SDS011;4277;51.354;6.740;2023-02-28T01:03:25;8.87;;;5.97;;
8480;SDS011;4277;51.354;6.740;2023-02-28T01:05:51;12.10;;;6.33;;
8480;SDS011;4277;51.354;6.740;2023-02-28T01:08:18;7.30;;;5.90;;
8480;SDS011;4277;51.354;6.740;2023-02-28T01:10:44;7.83;;;5.60;;
8480;SDS011;4277;51.354;6.740;2023-02-28T01:13:10;7.23;;;5.50;;
8480;SDS011;4277;51.354;6.740;2023-02-28T01:15:37;10.53;;;5.57;;
8480;SDS011;4277;51.354;6.740;2023-02-28T01:18:03;7.20;;;5.03;;
8480;SDS011;4277;51.354;6.740;2023-02-28T01:20:29;6.90;;;5.10;;
8480;SDS011;4277;51.354;6.740;2023-02-28T01:22:55;9.80;;;5.27;;
8480;SDS011;4277;51.354;6.740;2023-02-28T01:25:21;6.40;;;5.47;;
8480;SDS011;4277;51.354;6.740;2023-02-28T01:27:47;8.47;;;5.83;;
8480;SDS011;4277;51.354;6.740;2023-02-28T01:30:13;6.63;;;5.77;;
8480;SDS011;4277;51.354;6.740;2023-02-28T01:32:39;8.00;;;5.90;;
8480;SDS011;4277;51.354;6.740;2023-02-28T01:35:05;8.00;;;5.60;;
8480;SDS011;4277;51.354;6.740;2023-02-28T01:37:31;6.97;;;5.20;;
8480;SDS011;4277;51.354;6.740;2023-02-28T01:39:57;7.53;;;5.20;;
8480;SDS011;4277;51.354;6.740;2023-02-28T01:42:23;7.77;;;5.40;;
8480;SDS011;4277;51.354;6.740;2023-02-28T01:47:29;8.73;;;5.57;;
8480;SDS011;4277;51.354;6.740;2023-02-28T01:49:55;8.53;;;5.80;;
8480;SDS011;4277;51.354;6.740;2023-02-28T01:52:22;7.00;;;4.93;;
8480;SDS011;4277;51.354;6.740;2023-02-28T01:54:51;8.00;;;5.30;;
8480;SDS011;4277;51.354;6.740;2023-02-28T01:57:18;5.63;;;4.80;;
8480;SDS011;4277;51.354;6.740;2023-02-28T01:59:48;9.67;;;5.47;;
8480;SDS011;4277;51.354;6.740;2023-02-28T02:02:16;5.93;;;4.83;;
8480;SDS011;4277;51.354;6.740;2023-02-28T02:04:48;8.53;;;4.87;;
8480;SDS011;4277;51.354;6.740;2023-02-28T02:07:15;6.70;;;5.13;;
8480;SDS011;4277;51.354;6.740;2023-02-28T02:09:42;6.87;;;5.00;;
8480;SDS011;4277;51.354;6.740;2023-02-28T02:12:51;6.07;;;5.13;;
8480;SDS011;4277;51.354;6.740;2023-02-28T02:15:01;7.97;;;4.97;;
8480;SDS011;4277;51.354;6.740;2023-02-28T02:22:33;8.90;;;5.03;;
8480;SDS011;4277;51.354;6.740;2023-02-28T02:25:19;6.13;;;4.67;;
8480;SDS011;4277;51.354;6.740;2023-02-28T02:30:27;6.90;;;5.20;;
8480;SDS011;4277;51.354;6.740;2023-02-28T02:35:42;5.97;;;4.50;;
8480;SDS011;4277;51.354;6.740;2023-02-28T02:43:41;6.90;;;5.07;;
8480;SDS011;4277;51.354;6.740;2023-02-28T02:46:12;6.93;;;5.50;;
8480;SDS011;4277;51.354;6.740;2023-02-28T02:48:40;8.07;;;5.13;;
8480;SDS011;4277;51.354;6.740;2023-02-28T02:51:09;6.47;;;4.63;;
8480;SDS011;4277;51.354;6.740;2023-02-28T02:53:47;8.20;;;4.90;;
8480;SDS011;4277;51.354;6.740;2023-02-28T02:56:14;6.37;;;4.70;;
8480;SDS011;4277;51.354;6.740;2023-02-28T02:58:41;7.90;;;5.30;;
8480;SDS011;4277;51.354;6.740;2023-02-28T03:01:12;5.70;;;4.80;;
8480;SDS011;4277;51.354;6.740;2023-02-28T03:03:40;7.20;;;5.17;;
8480;SDS011;4277;51.354;6.740;2023-02-28T03:06:06;6.73;;;5.03;;
8480;SDS011;4277;51.354;6.740;2023-02-28T03:08:34;5.83;;;4.70;;
8480;SDS011;4277;51.354;6.740;2023-02-28T03:11:01;8.67;;;5.00;;
8480;SDS011;4277;51.354;6.740;2023-02-28T03:21:25;7.33;;;4.97;;
8480;SDS011;4277;51.354;6.740;2023-02-28T03:26:30;6.63;;;4.33;;
8480;SDS011;4277;51.354;6.740;2023-02-28T03:29:05;5.40;;;4.80;;
8480;SDS011;4277;51.354;6.740;2023-02-28T03:31:38;6.17;;;4.87;;
8480;SDS011;4277;51.354;6.740;2023-02-28T03:36:33;8.90;;;4.77;;
8480;SDS011;4277;51.354;6.740;2023-02-28T03:39:07;6.17;;;4.70;;
8480;SDS011;4277;51.354;6.740;2023-02-28T03:41:48;6.87;;;4.90;;
8480;SDS011;4277;51.354;6.740;2023-02-28T03:44:17;5.97;;;4.67;;
8480;SDS011;4277;51.354;6.740;2023-02-28T03:46:49;7.50;;;4.90;;
8480;SDS011;4277;51.354;6.740;2023-02-28T03:49:17;9.93;;;4.50;;
8480;SDS011;4277;51.354;6.740;2023-02-28T03:51:44;8.00;;;5.03;;
8480;SDS011;4277;51.354;6.740;2023-02-28T03:54:12;7.10;;;4.67;;
8480;SDS011;4277;51.354;6.740;2023-02-28T03:57:02;6.37;;;4.60;;
8480;SDS011;4277;51.354;6.740;2023-02-28T03:59:29;6.57;;;4.07;;
8480;SDS011;4277;51.354;6.740;2023-02-28T04:01:58;6.70;;;4.43;;
8480;SDS011;4277;51.354;6.740;2023-02-28T04:04:24;7.13;;;4.47;;
8480;SDS011;4277;51.354;6.740;2023-02-28T04:06:51;6.80;;;4.30;;
8480;SDS011;4277;51.354;6.740;2023-02-28T04:09:17;5.97;;;4.33;;
8480;SDS011;4277;51.354;6.740;2023-02-28T04:11:48;5.57;;;4.23;;
8480;SDS011;4277;51.354;6.740;2023-02-28T04:14:16;7.80;;;4.30;;
8480;SDS011;4277;51.354;6.740;2023-02-28T04:16:42;5.87;;;4.23;;
8480;SDS011;4277;51.354;6.740;2023-02-28T04:19:08;6.70;;;3.90;;
8480;SDS011;4277;51.354;6.740;2023-02-28T04:21:36;6.17;;;4.40;;
8480;SDS011;4277;51.354;6.740;2023-02-28T04:24:04;5.83;;;4.07;;
8480;SDS011;4277;51.354;6.740;2023-02-28T04:26:31;6.03;;;3.70;;
8480;SDS011;4277;51.354;6.740;2023-02-28T04:28:58;6.03;;;4.10;;
8480;SDS011;4277;51.354;6.740;2023-02-28T04:31:24;4.63;;;3.67;;
8480;SDS011;4277;51.354;6.740;2023-02-28T04:33:50;5.57;;;4.00;;
8480;SDS011;4277;51.354;6.740;2023-02-28T04:36:16;6.23;;;4.10;;
8480;SDS011;4277;51.354;6.740;2023-02-28T04:38:45;5.50;;;4.27;;
8480;SDS011;4277;51.354;6.740;2023-02-28T04:41:11;7.53;;;4.27;;
8480;SDS011;4277;51.354;6.740;2023-02-28T04:43:37;6.20;;;4.50;;
8480;SDS011;4277;51.354;6.740;2023-02-28T04:46:04;6.53;;;3.97;;
8480;SDS011;4277;51.354;6.740;2023-02-28T04:48:31;6.87;;;4.10;;
8480;SDS011;4277;51.354;6.740;2023-02-28T04:51:04;6.53;;;3.97;;
8480;SDS011;4277;51.354;6.740;2023-02-28T04:53:30;5.90;;;3.97;;
8480;SDS011;4277;51.354;6.740;2023-02-28T04:55:56;6.57;;;4.00;;
8480;SDS011;4277;51.354;6.740;2023-02-28T04:58:23;7.57;;;4.10;;
8480;SDS011;4277;51.354;6.740;2023-02-28T05:00:49;4.87;;;3.67;;
8480;SDS011;4277;51.354;6.740;2023-02-28T05:03:15;7.03;;;3.80;;
8480;SDS011;4277;51.354;6.740;2023-02-28T05:05:41;5.73;;;3.73;;
8480;SDS011;4277;51.354;6.740;2023-02-28T05:08:07;5.83;;;3.90;;
8480;SDS011;4277;51.354;6.740;2023-02-28T05:10:34;5.67;;;3.43;;
8480;SDS011;4277;51.354;6.740;2023-02-28T05:13:00;4.57;;;3.50;;
8480;SDS011;4277;51.354;6.740;2023-02-28T05:15:26;4.63;;;3.43;;
8480;SDS011;4277;51.354;6.740;2023-02-28T05:17:52;6.17;;;3.47;;
8480;SDS011;4277;51.354;6.740;2023-02-28T05:20:18;6.30;;;4.10;;
8480;SDS011;4277;51.354;6.740;2023-02-28T05:22:45;5.83;;;3.83;;
8480;SDS011;4277;51.354;6.740;2023-02-28T05:25:12;8.40;;;4.43;;
8480;SDS011;4277;51.354;6.740;2023-02-28T05:27:39;6.47;;;4.03;;
8480;SDS011;4277;51.354;6.740;2023-02-28T05:30:06;5.20;;;3.57;;
8480;SDS011;4277;51.354;6.740;2023-02-28T05:32:35;4.77;;;3.73;;
8480;SDS011;4277;51.354;6.740;2023-02-28T05:35:01;5.67;;;3.57;;
8480;SDS011;4277;51.354;6.740;2023-02-28T05:37:27;5.13;;;4.00;;
8480;SDS011;4277;51.354;6.740;2023-02-28T05:39:53;8.30;;;4.10;;
8480;SDS011;4277;51.354;6.740;2023-02-28T05:42:19;6.10;;;4.23;;
8480;SDS011;4277;51.354;6.740;2023-02-28T05:44:45;7.00;;;4.03;;
8480;SDS011;4277;51.354;6.740;2023-02-28T05:47:11;6.37;;;4.00;;
8480;SDS011;4277;51.354;6.740;2023-02-28T05:49:40;6.37;;;4.37;;
8480;SDS011;4277;51.354;6.740;2023-02-28T05:52:06;6.30;;;4.40;;
8480;SDS011;4277;51.354;6.740;2023-02-28T05:54:32;14.40;;;4.60;;
8480;SDS011;4277;51.354;6.740;2023-02-28T05:56:58;5.73;;;4.30;;
8480;SDS011;4277;51.354;6.740;2023-02-28T05:59:24;6.67;;;4.50;;
8480;SDS011;4277;51.354;6.740;2023-02-28T06:01:50;8.27;;;4.43;;
8480;SDS011;4277;51.354;6.740;2023-02-28T06:04:18;7.67;;;4.40;;
8480;SDS011;4277;51.354;6.740;2023-02-28T06:06:45;6.70;;;4.40;;
8480;SDS011;4277;51.354;6.740;2023-02-28T06:09:11;9.03;;;4.63;;
8480;SDS011;4277;51.354;6.740;2023-02-28T06:11:37;7.70;;;4.77;;
8480;SDS011;4277;51.354;6.740;2023-02-28T06:14:03;4.83;;;4.20;;
8480;SDS011;4277;51.354;6.740;2023-02-28T06:16:30;5.97;;;4.10;;
8480;SDS011;4277;51.354;6.740;2023-02-28T06:18:56;7.67;;;4.37;;
8480;SDS011;4277;51.354;6.740;2023-02-28T06:21:23;7.33;;;4.50;;
8480;SDS011;4277;51.354;6.740;2023-02-28T06:23:49;6.73;;;4.20;;
8480;SDS011;4277;51.354;6.740;2023-02-28T06:26:15;5.73;;;4.03;;
8480;SDS011;4277;51.354;6.740;2023-02-28T06:28:41;6.33;;;4.77;;
8480;SDS011;4277;51.354;6.740;2023-02-28T06:31:08;8.07;;;4.80;;
8480;SDS011;4277;51.354;6.740;2023-02-28T06:33:35;6.73;;;4.77;;
8480;SDS011;4277;51.354;6.740;2023-02-28T06:36:01;8.80;;;4.87;;
8480;SDS011;4277;51.354;6.740;2023-02-28T06:38:27;6.27;;;4.60;;
8480;SDS011;4277;51.354;6.740;2023-02-28T06:40:54;5.97;;;4.23;;
8480;SDS011;4277;51.354;6.740;2023-02-28T06:43:20;10.10;;;4.43;;
8480;SDS011;4277;51.354;6.740;2023-02-28T06:45:46;8.37;;;4.73;;
8480;SDS011;4277;51.354;6.740;2023-02-28T06:48:12;9.70;;;4.47;;
8480;SDS011;4277;51.354;6.740;2023-02-28T06:50:38;8.57;;;5.40;;
8480;SDS011;4277;51.354;6.740;2023-02-28T06:53:04;8.77;;;5.43;;
8480;SDS011;4277;51.354;6.740;2023-02-28T06:55:30;8.80;;;4.57;;
8480;SDS011;4277;51.354;6.740;2023-02-28T06:57:56;7.43;;;4.33;;
8480;SDS011;4277;51.354;6.740;2023-02-28T07:00:22;9.50;;;4.90;;
8480;SDS011;4277;51.354;6.740;2023-02-28T07:02:49;5.00;;;3.70;;
8480;SDS011;4277;51.354;6.740;2023-02-28T07:05:15;7.37;;;3.80;;
8480;SDS011;4277;51.354;6.740;2023-02-28T07:07:41;4.63;;;3.40;;
8480;SDS011;4277;51.354;6.740;2023-02-28T07:10:10;6.00;;;3.70;;
8480;SDS011;4277;51.354;6.740;2023-02-28T07:12:36;11.00;;;3.80;;
8480;SDS011;4277;51.354;6.740;2023-02-28T07:15:03;10.07;;;4.30;;
8480;SDS011;4277;51.354;6.740;2023-02-28T07:17:32;6.17;;;3.80;;
8480;SDS011;4277;51.354;6.740;2023-02-28T07:19:58;7.13;;;3.93;;
8480;SDS011;4277;51.354;6.740;2023-02-28T07:22:24;6.30;;;4.20;;
8480;SDS011;4277;51.354;6.740;2023-02-28T07:24:49;7.10;;;3.60;;
8480;SDS011;4277;51.354;6.740;2023-02-28T07:27:16;9.67;;;4.33;;
8480;SDS011;4277;51.354;6.740;2023-02-28T07:29:48;6.23;;;3.90;;
8480;SDS011;4277;51.354;6.740;2023-02-28T07:32:16;5.73;;;3.93;;
8480;SDS011;4277;51.354;6.740;2023-02-28T07:34:43;7.47;;;3.83;;
8480;SDS011;4277;51.354;6.740;2023-02-28T07:37:09;5.30;;;3.93;;
8480;SDS011;4277;51.354;6.740;2023-02-28T07:39:35;7.33;;;3.87;;
8480;SDS011;4277;51.354;6.740;2023-02-28T07:42:05;4.73;;;3.70;;
8480;SDS011;4277;51.354;6.740;2023-02-28T07:44:31;7.57;;;4.07;;
8480;SDS011;4277;51.354;6.740;2023-02-28T07:46:57;5.60;;;3.60;;
8480;SDS011;4277;51.354;6.740;2023-02-28T07:49:23;5.27;;;3.60;;
8480;SDS011;4277;51.354;6.740;2023-02-28T07:51:49;3.73;;;3.33;;
8480;SDS011;4277;51.354;6.740;2023-02-28T07:54:15;7.03;;;3.70;;
8480;SDS011;4277;51.354;6.740;2023-02-28T07:56:41;7.47;;;3.57;;
8480;SDS011;4277;51.354;6.740;2023-02-28T07:59:07;6.50;;;4.13;;
8480;SDS011;4277;51.354;6.740;2023-02-28T08:01:34;4.57;;;3.53;;
8480;SDS011;4277;51.354;6.740;2023-02-28T08:04:00;5.53;;;3.93;;
8480;SDS011;4277;51.354;6.740;2023-02-28T08:06:26;4.13;;;3.53;;
8480;SDS011;4277;51.354;6.740;2023-02-28T08:08:52;6.87;;;3.77;;
8480;SDS011;4277;51.354;6.740;2023-02-28T08:11:18;4.67;;;3.47;;
8480;SDS011;4277;51.354;6.740;2023-02-28T08:13:44;4.53;;;3.37;;
8480;SDS011;4277;51.354;6.740;2023-02-28T08:16:11;5.87;;;3.50;;
8480;SDS011;4277;51.354;6.740;2023-02-28T08:18:40;6.77;;;3.43;;
8480;SDS011;4277;51.354;6.740;2023-02-28T08:21:06;6.23;;;3.27;;
8480;SDS011;4277;51.354;6.740;2023-02-28T08:23:32;5.80;;;3.30;;
8480;SDS011;4277;51.354;6.740;2023-02-28T08:25:58;4.20;;;3.07;;
8480;SDS011;4277;51.354;6.740;2023-02-28T08:28:24;3.30;;;3.00;;
8480;SDS011;4277;51.354;6.740;2023-02-28T08:30:50;4.10;;;3.00;;
8480;SDS011;4277;51.354;6.740;2023-02-28T08:33:16;4.00;;;2.87;;
8480;SDS011;4277;51.354;6.740;2023-02-28T08:35:42;3.20;;;2.80;;
8480;SDS011;4277;51.354;6.740;2023-02-28T08:38:08;3.80;;;3.10;;
8480;SDS011;4277;51.354;6.740;2023-02-28T08:40:34;4.00;;;2.93;;
8480;SDS011;4277;51.354;6.740;2023-02-28T08:43:00;3.60;;;2.67;;
8480;SDS011;4277;51.354;6.740;2023-02-28T08:45:26;6.10;;;3.10;;
8480;SDS011;4277;51.354;6.740;2023-02-28T08:47:53;3.73;;;2.87;;
8480;SDS011;4277;51.354;6.740;2023-02-28T08:50:19;6.20;;;3.10;;
8480;SDS011;4277;51.354;6.740;2023-02-28T08:52:45;3.43;;;2.93;;
8480;SDS011;4277;51.354;6.740;2023-02-28T08:55:11;3.70;;;3.10;;
8480;SDS011;4277;51.354;6.740;2023-02-28T08:57:37;5.07;;;2.83;;
8480;SDS011;4277;51.354;6.740;2023-02-28T09:00:03;5.47;;;2.50;;
8480;SDS011;4277;51.354;6.740;2023-02-28T09:02:30;2.60;;;2.40;;
8480;SDS011;4277;51.354;6.740;2023-02-28T09:04:57;2.87;;;2.57;;
8480;SDS011;4277;51.354;6.740;2023-02-28T09:07:23;3.03;;;2.63;;
8480;SDS011;4277;51.354;6.740;2023-02-28T09:09:49;5.37;;;2.70;;
8480;SDS011;4277;51.354;6.740;2023-02-28T09:12:22;2.83;;;2.50;;
8480;SDS011;4277;51.354;6.740;2023-02-28T09:14:48;4.57;;;2.63;;
8480;SDS011;4277;51.354;6.740;2023-02-28T09:17:14;2.83;;;2.43;;
8480;SDS011;4277;51.354;6.740;2023-02-28T09:19:40;3.07;;;2.70;;
8480;SDS011;4277;51.354;6.740;2023-02-28T09:22:07;7.47;;;2.93;;
8480;SDS011;4277;51.354;6.740;2023-02-28T09:24:33;3.57;;;2.60;;
8480;SDS011;4277;51.354;6.740;2023-02-28T09:26:59;4.93;;;2.53;;
8480;SDS011;4277;51.354;6.740;2023-02-28T09:29:25;3.73;;;2.30;;
8480;SDS011;4277;51.354;6.740;2023-02-28T09:31:51;3.33;;;2.30;;
8480;SDS011;4277;51.354;6.740;2023-02-28T09:34:17;2.27;;;2.07;;
8480;SDS011;4277;51.354;6.740;2023-02-28T09:36:43;5.00;;;2.30;;
8480;SDS011;4277;51.354;6.740;2023-02-28T09:39:09;3.97;;;2.17;;
8480;SDS011;4277;51.354;6.740;2023-02-28T09:41:40;3.30;;;2.27;;
8480;SDS011;4277;51.354;6.740;2023-02-28T09:44:13;2.40;;;2.00;;
8480;SDS011;4277;51.354;6.740;2023-02-28T09:46:44;3.47;;;2.07;;
8480;SDS011;4277;51.354;6.740;2023-02-28T09:49:14;3.00;;;2.40;;
8480;SDS011;4277;51.354;6.740;2023-02-28T09:54:13;2.40;;;2.10;;
8480;SDS011;4277;51.354;6.740;2023-02-28T09:56:43;2.37;;;2.03;;
8480;SDS011;4277;51.354;6.740;2023-02-28T09:59:14;2.60;;;2.40;;
8480;SDS011;4277;51.354;6.740;2023-02-28T10:06:50;2.30;;;2.10;;
8480;SDS011;4277;51.354;6.740;2023-02-28T10:09:21;2.27;;;2.00;;
8480;SDS011;4277;51.354;6.740;2023-02-28T10:11:49;2.27;;;2.00;;
8480;SDS011;4277;51.354;6.740;2023-02-28T10:14:18;5.00;;;2.00;;
8480;SDS011;4277;51.354;6.740;2023-02-28T10:16:49;3.43;;;2.00;;
8480;SDS011;4277;51.354;6.740;2023-02-28T10:19:20;2.50;;;1.90;;
8480;SDS011;4277;51.354;6.740;2023-02-28T10:21:49;2.97;;;2.00;;
8480;SDS011;4277;51.354;6.740;2023-02-28T10:24:35;2.17;;;1.97;;
8480;SDS011;4277;51.354;6.740;2023-02-28T10:27:14;2.90;;;2.10;;
8480;SDS011;4277;51.354;6.740;2023-02-28T10:29:40;2.57;;;2.00;;
8480;SDS011;4277;51.354;6.740;2023-02-28T10:32:08;3.30;;;1.73;;
8480;SDS011;4277;51.354;6.740;2023-02-28T10:34:36;2.30;;;1.70;;
8480;SDS011;4277;51.354;6.740;2023-02-28T10:37:02;2.00;;;1.70;;
8480;SDS011;4277;51.354;6.740;2023-02-28T10:39:36;1.73;;;1.50;;
8480;SDS011;4277;51.354;6.740;2023-02-28T10:42:02;3.27;;;1.90;;
8480;SDS011;4277;51.354;6.740;2023-02-28T10:44:28;1.90;;;1.70;;
8480;SDS011;4277;51.354;6.740;2023-02-28T10:46:54;3.17;;;2.10;;
8480;SDS011;4277;51.354;6.740;2023-02-28T10:49:22;1.77;;;1.50;;
8480;SDS011;4277;51.354;6.740;2023-02-28T10:51:52;2.67;;;1.60;;
8480;SDS011;4277;51.354;6.740;2023-02-28T10:54:40;2.27;;;1.83;;
8480;SDS011;4277;51.354;6.740;2023-02-28T10:57:27;1.60;;;1.50;;
8480;SDS011;4277;51.354;6.740;2023-02-28T11:00:06;2.00;;;1.70;;
8480;SDS011;4277;51.354;6.740;2023-02-28T11:02:33;1.80;;;1.60;;
8480;SDS011;4277;51.354;6.740;2023-02-28T11:04:59;2.37;;;1.70;;
8480;SDS011;4277;51.354;6.740;2023-02-28T11:07:26;2.07;;;1.60;;
8480;SDS011;4277;51.354;6.740;2023-02-28T11:09:53;2.67;;;1.70;;
8480;SDS011;4277;51.354;6.740;2023-02-28T11:12:30;1.90;;;1.50;;
8480;SDS011;4277;51.354;6.740;2023-02-28T11:14:58;2.80;;;1.60;;
8480;SDS011;4277;51.354;6.740;2023-02-28T11:17:28;1.70;;;1.50;;
8480;SDS011;4277;51.354;6.740;2023-02-28T11:20:05;3.03;;;1.80;;
8480;SDS011;4277;51.354;6.740;2023-02-28T11:22:37;2.13;;;1.63;;
8480;SDS011;4277;51.354;6.740;2023-02-28T11:25:15;3.60;;;1.50;;
8480;SDS011;4277;51.354;6.740;2023-02-28T11:27:46;1.50;;;1.37;;
8480;SDS011;4277;51.354;6.740;2023-02-28T11:30:26;1.93;;;1.60;;
8480;SDS011;4277;51.354;6.740;2023-02-28T11:32:53;1.67;;;1.50;;
8480;SDS011;4277;51.354;6.740;2023-02-28T11:35:22;2.00;;;1.80;;
8480;SDS011;4277;51.354;6.740;2023-02-28T11:37:50;1.90;;;1.67;;
8480;SDS011;4277;51.354;6.740;2023-02-28T11:40:21;1.90;;;1.70;;
8480;SDS011;4277;51.354;6.740;2023-02-28T11:43:04;2.40;;;1.77;;
8480;SDS011;4277;51.354;6.740;2023-02-28T11:48:09;2.30;;;1.77;;
8480;SDS011;4277;51.354;6.740;2023-02-28T11:58:51;2.80;;;1.80;;
8480;SDS011;4277;51.354;6.740;2023-02-28T12:06:23;1.97;;;1.77;;
8480;SDS011;4277;51.354;6.740;2023-02-28T12:08:54;2.03;;;1.70;;
8480;SDS011;4277;51.354;6.740;2023-02-28T12:16:58;2.20;;;1.70;;
8480;SDS011;4277;51.354;6.740;2023-02-28T12:19:42;1.93;;;1.73;;
8480;SDS011;4277;51.354;6.740;2023-02-28T12:22:25;2.37;;;1.80;;
8480;SDS011;4277;51.354;6.740;2023-02-28T12:24:58;3.60;;;2.00;;
8480;SDS011;4277;51.354;6.740;2023-02-28T12:27:26;3.83;;;1.53;;
8480;SDS011;4277;51.354;6.740;2023-02-28T12:29:55;2.57;;;1.70;;
8480;SDS011;4277;51.354;6.740;2023-02-28T12:32:33;2.30;;;1.70;;
8480;SDS011;4277;51.354;6.740;2023-02-28T12:35:22;3.07;;;1.80;;
8480;SDS011;4277;51.354;6.740;2023-02-28T12:40:19;2.20;;;1.83;;
8480;SDS011;4277;51.354;6.740;2023-02-28T12:42:49;4.37;;;1.90;;
8480;SDS011;4277;51.354;6.740;2023-02-28T12:45:18;2.20;;;2.00;;
8480;SDS011;4277;51.354;6.740;2023-02-28T12:47:45;1.80;;;1.70;;
8480;SDS011;4277;51.354;6.740;2023-02-28T12:50:14;3.07;;;1.90;;
8480;SDS011;4277;51.354;6.740;2023-02-28T12:52:58;1.97;;;1.70;;
8480;SDS011;4277;51.354;6.740;2023-02-28T12:58:09;3.13;;;1.83;;
8480;SDS011;4277;51.354;6.740;2023-02-28T13:00:37;3.80;;;1.93;;
8480;SDS011;4277;51.354;6.740;2023-02-28T13:03:18;2.77;;;1.80;;
8480;SDS011;4277;51.354;6.740;2023-02-28T13:11:50;2.37;;;1.90;;
8480;SDS011;4277;51.354;6.740;2023-02-28T13:14:23;2.70;;;1.73;;
8480;SDS011;4277;51.354;6.740;2023-02-28T13:17:11;2.17;;;1.83;;
8480;SDS011;4277;51.354;6.740;2023-02-28T13:19:37;2.13;;;1.93;;
8480;SDS011;4277;51.354;6.740;2023-02-28T13:22:04;2.67;;;2.10;;
8480;SDS011;4277;51.354;6.740;2023-02-28T13:29:30;2.00;;;1.80;;
8480;SDS011;4277;51.354;6.740;2023-02-28T13:39:45;3.73;;;2.07;;
8480;SDS011;4277;51.354;6.740;2023-02-28T13:45:19;2.57;;;2.03;;
8480;SDS011;4277;51.354;6.740;2023-02-28T13:47:41;2.37;;;2.00;;
8480;SDS011;4277;51.354;6.740;2023-02-28T13:55:30;2.67;;;2.10;;
8480;SDS011;4277;51.354;6.740;2023-02-28T13:58:02;3.03;;;2.20;;
8480;SDS011;4277;51.354;6.740;2023-02-28T14:00:39;5.93;;;2.43;;
8480;SDS011;4277;51.354;6.740;2023-02-28T14:05:44;2.30;;;2.10;;
8480;SDS011;4277;51.354;6.740;2023-02-28T14:08:15;7.80;;;2.57;;
8480;SDS011;4277;51.354;6.740;2023-02-28T14:10:46;2.47;;;2.27;;
8480;SDS011;4277;51.354;6.740;2023-02-28T14:16:00;3.23;;;2.60;;
8480;SDS011;4277;51.354;6.740;2023-02-28T14:18:28;5.53;;;2.50;;
8480;SDS011;4277;51.354;6.740;2023-02-28T14:20:57;3.43;;;2.27;;
8480;SDS011;4277;51.354;6.740;2023-02-28T14:23:40;3.60;;;2.30;;
8480;SDS011;4277;51.354;6.740;2023-02-28T14:26:12;3.17;;;2.03;;
8480;SDS011;4277;51.354;6.740;2023-02-28T14:28:46;2.93;;;2.13;;
8480;SDS011;4277;51.354;6.740;2023-02-28T14:31:15;3.40;;;2.10;;
8480;SDS011;4277;51.354;6.740;2023-02-28T14:36:21;3.13;;;2.30;;
8480;SDS011;4277;51.354;6.740;2023-02-28T14:38:52;2.60;;;2.20;;
8480;SDS011;4277;51.354;6.740;2023-02-28T14:41:30;2.37;;;2.17;;
8480;SDS011;4277;51.354;6.740;2023-02-28T14:43:57;3.70;;;2.60;;
8480;SDS011;4277;51.354;6.740;2023-02-28T14:46:25;2.53;;;2.30;;
8480;SDS011;4277;51.354;6.740;2023-02-28T14:48:52;3.27;;;2.47;;
8480;SDS011;4277;51.354;6.740;2023-02-28T14:51:19;3.10;;;2.40;;
8480;SDS011;4277;51.354;6.740;2023-02-28T14:53:47;2.40;;;2.20;;
8480;SDS011;4277;51.354;6.740;2023-02-28T14:56:24;2.50;;;2.30;;
8480;SDS011;4277;51.354;6.740;2023-02-28T14:58:53;2.50;;;2.30;;
8480;SDS011;4277;51.354;6.740;2023-02-28T15:01:20;3.80;;;2.30;;
8480;SDS011;4277;51.354;6.740;2023-02-28T15:03:47;2.63;;;2.20;;
8480;SDS011;4277;51.354;6.740;2023-02-28T15:06:17;2.93;;;2.70;;
8480;SDS011;4277;51.354;6.740;2023-02-28T15:08:43;2.67;;;2.27;;
8480;SDS011;4277;51.354;6.740;2023-02-28T15:11:13;2.63;;;2.40;;
8480;SDS011;4277;51.354;6.740;2023-02-28T15:13:41;2.70;;;2.50;;
8480;SDS011;4277;51.354;6.740;2023-02-28T15:21:12;3.10;;;2.80;;
8480;SDS011;4277;51.354;6.740;2023-02-28T15:23:39;3.40;;;3.10;;
8480;SDS011;4277;51.354;6.740;2023-02-28T15:26:06;3.00;;;2.60;;
8480;SDS011;4277;51.354;6.740;2023-02-28T15:28:32;2.80;;;2.60;;
8480;SDS011;4277;51.354;6.740;2023-02-28T15:30:59;3.20;;;2.60;;
8480;SDS011;4277;51.354;6.740;2023-02-28T15:33:34;4.47;;;2.70;;
8480;SDS011;4277;51.354;6.740;2023-02-28T15:36:11;3.87;;;2.60;;
8480;SDS011;4277;51.354;6.740;2023-02-28T15:38:38;3.43;;;2.70;;
8480;SDS011;4277;51.354;6.740;2023-02-28T15:41:04;3.43;;;2.57;;
8480;SDS011;4277;51.354;6.740;2023-02-28T15:43:36;3.00;;;2.70;;
8480;SDS011;4277;51.354;6.740;2023-02-28T15:46:06;3.20;;;2.70;;
8480;SDS011;4277;51.354;6.740;2023-02-28T15:48:35;5.17;;;2.80;;
8480;SDS011;4277;51.354;6.740;2023-02-28T15:53:32;3.07;;;2.87;;
8480;SDS011;4277;51.354;6.740;2023-02-28T15:56:03;3.87;;;3.30;;
8480;SDS011;4277;51.354;6.740;2023-02-28T15:58:30;2.90;;;2.70;;
8480;SDS011;4277;51.354;6.740;2023-02-28T16:01:01;3.83;;;3.00;;
8480;SDS011;4277;51.354;6.740;2023-02-28T16:03:32;5.00;;;2.77;;
8480;SDS011;4277;51.354;6.740;2023-02-28T16:06:17;4.20;;;2.80;;
8480;SDS011;4277;51.354;6.740;2023-02-28T16:08:47;3.70;;;2.93;;
8480;SDS011;4277;51.354;6.740;2023-02-28T16:11:14;3.97;;;2.93;;
8480;SDS011;4277;51.354;6.740;2023-02-28T16:13:40;3.57;;;2.80;;
8480;SDS011;4277;51.354;6.740;2023-02-28T16:16:06;3.43;;;2.90;;
8480;SDS011;4277;51.354;6.740;2023-02-28T16:18:32;3.73;;;2.60;;
8480;SDS011;4277;51.354;6.740;2023-02-28T16:20:58;5.30;;;2.60;;
8480;SDS011;4277;51.354;6.740;2023-02-28T16:23:24;4.03;;;2.60;;
8480;SDS011;4277;51.354;6.740;2023-02-28T16:25:50;3.00;;;2.60;;
8480;SDS011;4277;51.354;6.740;2023-02-28T16:28:20;3.10;;;2.70;;
8480;SDS011;4277;51.354;6.740;2023-02-28T16:30:52;3.13;;;2.80;;
8480;SDS011;4277;51.354;6.740;2023-02-28T16:33:18;5.00;;;2.90;;
8480;SDS011;4277;51.354;6.740;2023-02-28T16:35:44;4.80;;;3.10;;
8480;SDS011;4277;51.354;6.740;2023-02-28T16:38:10;3.40;;;3.10;;
8480;SDS011;4277;51.354;6.740;2023-02-28T16:40:36;7.83;;;2.90;;
8480;SDS011;4277;51.354;6.740;2023-02-28T16:43:16;4.13;;;3.20;;
8480;SDS011;4277;51.354;6.740;2023-02-28T16:45:43;3.63;;;2.90;;
8480;SDS011;4277;51.354;6.740;2023-02-28T16:48:13;3.37;;;3.07;;
8480;SDS011;4277;51.354;6.740;2023-02-28T16:50:40;3.97;;;3.03;;
8480;SDS011;4277;51.354;6.740;2023-02-28T16:53:06;3.10;;;2.80;;
8480;SDS011;4277;51.354;6.740;2023-02-28T16:55:32;5.20;;;3.43;;
8480;SDS011;4277;51.354;6.740;2023-02-28T16:57:59;3.40;;;3.10;;
8480;SDS011;4277;51.354;6.740;2023-02-28T17:00:26;4.23;;;3.10;;
8480;SDS011;4277;51.354;6.740;2023-02-28T17:02:52;4.30;;;2.57;;
8480;SDS011;4277;51.354;6.740;2023-02-28T17:05:18;4.20;;;3.10;;
8480;SDS011;4277;51.354;6.740;2023-02-28T17:07:45;4.00;;;2.93;;
8480;SDS011;4277;51.354;6.740;2023-02-28T17:10:22;6.07;;;3.30;;